LTAZLTFH

Guest
Details From LTAZ - KAPADOKYA
To LTFH - CARSAMBA
Flight Number -
Tags generated
Created
Modified
Stats Distance 176 nm / 326 km
Max Altitude 19,500 ft / 5,944 m
Waypoints 3
Social Downloads 0
Likes 0
Share VATSIM

Download

Looking for another format? Having issues loading an existing format? Contact us
Advertisement - Login to hide

Notes

Basic altitude profile: - Ascent Rate: 2500ft/min - Ascent Speed: 250kts - Cruise Altitude: 35000ft - Cruise Speed: 420kts - Descent Rate: 1500ft/min - Descent Speed: 250kts Options: - Use NATs: yes - Use PACOTS: yes - Use low airways: yes - Use high airways: no

Route

LTAZ ELDEN LTFH

ID Type Via Altitude Latitude Longitude Leg Dist Tot Dist Heading (true) Name
O LTAZ APT - 0 ft / 0 m 38.77186˚ 34.53455˚ - 0 nm - KAPADOKYA
ELDEN FIX - 19,500 ft / 5,944 m 39.90972˚ 35.42917˚ 79 nm 79 nm 31° / 32° -
O LTFH APT - 0 ft / 0 m 41.25448˚ 36.56710˚ 96 nm 175 nm 32° / 33° CARSAMBA

Altitude Profile

Advertisement - Login to hide

Weather


0- 5 10 15 20 25 30 35+ Temperature / ° C

Clouds and Precipitation
Forecast for 2017-12-11 06:00 UTC. Updated an hour ago

Ground ~20,000 ft ~40,000 ft Winds

LTAZ

Details ICAO LTAZ (NAV)
Name KAPADOKYA
Region Turkey
Timezone Europe/Istanbul (UTC+3.0)
Stats Elevation 3,100 ft / 945 m (AMSL)
Location 38.771865° 34.534548°
Runways 1
Magnetic Variation 5.598° E

METAR

LTAZ 110150Z 03006KT 350V100 9999 SCT040 07/02 Q1023

Decode

TAF

Not found

Departure Runways

ID Width Length Bearing (true) Bearing (mag) Surface Threshold Offset Overrun Length
11 148 ft / 45 m 9,789 ft / 2,984 m 117.31° 111.71° Concrete 0 ft / 0 m 197 ft / 60 m
29 148 ft / 45 m 9,789 ft / 2,984 m 297.33° 291.73° Concrete 0 ft / 0 m 197 ft / 60 m

LTFH

Details ICAO LTFH (SZF)
Name CARSAMBA
Region Turkey
Timezone Europe/Istanbul (UTC+3.0)
Stats Elevation 18 ft / 5 m (AMSL)
Location 41.254480° 36.567103°
Runways 1
Magnetic Variation 6.199° E

METAR

LTFH 110150Z 04001KT 8000 -SHRA SCT012 BKN026 BKN090 09/08 Q1024 NOSIG

Decode

TAF

Not found

Destination Runways

ID Width Length Bearing (true) Bearing (mag) Surface Threshold Offset Overrun Length
13 148 ft / 45 m 9,798 ft / 2,986 m 133.61° 127.41° Concrete 0 ft / 0 m 195 ft / 59 m
31 148 ft / 45 m 9,798 ft / 2,986 m 313.63° 307.43° Concrete 0 ft / 0 m 195 ft / 59 m

Approach Navaids

Runway Type Ident Frequency Range Bearing (true) Bearing (mag) Slope Elevation
13 Localiser ICRM 110.10 MHz 18 nm / 33 km 133.64° 127.44° - 18 ft / 5 m (AMSL)
13 Glidescope ICRM 110.10 MHz 10 nm / 19 km 133.62° 127.42° 3.00° 18 ft / 5 m (AMSL)

Popular Alternatives